LFLY

Lyon-Bron Airport

Airport
ICAO code
LFLY
IATA Code
LYN
Summary
ICAO Region
EUR
ICAO Territory
Location

, Rhone-Alpes

Serving
Lyon
Elevation
659 ft
Coordinates
45° 43' 38" N , 4° 56' 39" E
Metar
LFLY 190430Z AUTO 16003KT CAVOK 01/01 Q1023 NOSIG

Runways

Designator Length Width Surface Rops
16/34 1820 45 ASP Yes/Yes

Airport map

Aerial View

SKYbrary Partners:

Safety knowledge contributed by: